Time;durP1;ratioP1;P1;durP2;ratioP2;P2;SDS_P1;SDS_P2;PMS_P1;PMS_P2;Temp;Humidity;BMP_temperature;BMP_pressure;BME280_temperature;BME280_humidity;BME280_pressure;Samples;Min_cycle;Max_cycle;Signal;HPM_P1;HPM_P2
2022/09/20 00:01:53;;;;;;;14.10;4.90;;;11.00;99.90;;;;;;5053891;28;20041;-56
2022/09/20 00:04:19;;;;;;;13.80;4.88;;;11.10;99.90;;;;;;5054362;28;20024;-56
2022/09/20 00:06:45;;;;;;;15.25;4.88;;;11.20;99.90;;;;;;5053710;28;20033;-56
2022/09/20 00:09:11;;;;;;;12.95;4.72;;;11.30;99.90;;;;;;5053439;28;20025;-56
2022/09/20 00:11:36;;;;;;;12.73;4.93;;;11.30;99.90;;;;;;5070042;28;20032;-56
2022/09/20 00:14:07;;;;;;;9.00;4.43;;;11.40;99.90;;;;;;5054112;28;20033;-57
2022/09/20 00:16:35;;;;;;;9.95;4.47;;;11.40;99.90;;;;;;5054284;28;20439;-56
2022/09/20 00:19:03;;;;;;;13.55;5.97;;;11.40;99.90;;;;;;5053916;28;20017;-56
2022/09/20 00:21:30;;;;;;;11.38;5.38;;;11.40;99.90;;;;;;5053855;28;20036;-55
2022/09/20 00:23:57;;;;;;;14.00;5.43;;;11.40;99.90;;;;;;5053927;28;20017;-56
2022/09/20 00:26:24;;;;;;;17.40;5.30;;;11.40;99.90;;;;;;5054125;28;20070;-56
2022/09/20 00:28:50;;;;;;;9.43;4.90;;;11.50;99.90;;;;;;5054519;28;20064;-56
2022/09/20 00:31:16;;;;;;;10.68;4.93;;;11.50;99.90;;;;;;5057890;28;20024;-56
2022/09/20 00:36:27;;;;;;;9.80;5.43;;;11.60;99.90;;;;;;5058349;28;20035;-56
2022/09/20 00:38:57;;;;;;;12.60;5.65;;;11.50;99.90;;;;;;5057994;28;20455;-56
2022/09/20 00:41:23;;;;;;;11.10;5.22;;;11.60;99.90;;;;;;5058116;28;20033;-56
2022/09/20 00:43:49;;;;;;;12.85;5.55;;;11.60;99.90;;;;;;5058174;28;20032;-57
2022/09/20 00:46:39;;;;;;;11.60;5.50;;;11.60;99.90;;;;;;5057213;28;20029;-56
2022/09/20 00:49:17;;;;;;;10.52;4.55;;;11.50;99.90;;;;;;5058259;28;20107;-55
2022/09/20 00:51:47;;;;;;;11.15;4.85;;;11.50;99.90;;;;;;5057900;28;20483;-55
2022/09/20 00:54:16;;;;;;;13.38;5.47;;;11.40;99.90;;;;;;5057945;28;20021;-55
2022/09/20 00:56:42;;;;;;;10.30;4.70;;;11.40;99.90;;;;;;5057989;28;20087;-55
2022/09/20 00:59:24;;;;;;;8.63;4.40;;;11.40;99.90;;;;;;5057735;28;20091;-56
2022/09/20 01:01:58;;;;;;;10.05;4.80;;;11.40;99.90;;;;;;5057725;28;20493;-56
2022/09/20 01:04:27;;;;;;;8.32;4.22;;;11.40;99.90;;;;;;5057596;28;20025;-56
2022/09/20 01:06:54;;;;;;;11.10;4.70;;;11.40;99.90;;;;;;5057112;28;20033;-56
2022/09/20 01:09:20;;;;;;;11.77;4.28;;;11.30;99.90;;;;;;5058009;28;20397;-56
2022/09/20 01:11:48;;;;;;;12.65;4.18;;;11.40;99.90;;;;;;5072941;28;20037;-56
2022/09/20 01:14:17;;;;;;;10.27;4.32;;;11.40;99.90;;;;;;5058260;28;20420;-56
2022/09/20 01:16:43;;;;;;;12.43;4.78;;;11.40;99.90;;;;;;5057453;28;20045;-56
2022/09/20 01:19:24;;;;;;;7.70;3.90;;;11.40;99.90;;;;;;5057726;28;20103;-56
2022/09/20 01:21:51;;;;;;;14.63;4.57;;;11.40;99.90;;;;;;5072741;28;20041;-56
2022/09/20 01:24:37;;;;;;;11.73;4.32;;;11.40;99.90;;;;;;5057338;28;20017;-56
2022/09/20 01:27:35;;;;;;;8.60;4.00;;;11.40;99.90;;;;;;5057113;28;20033;-56
2022/09/20 01:30:08;;;;;;;8.00;4.05;;;11.40;99.90;;;;;;5054507;28;20072;-56
2022/09/20 01:33:28;;;;;;;8.95;4.20;;;11.30;99.90;;;;;;5072511;28;20083;-56
2022/09/20 01:35:59;;;;;;;12.98;3.85;;;11.30;99.90;;;;;;5044519;28;20041;-56
2022/09/20 01:39:00;;;;;;;10.77;4.20;;;11.30;99.90;;;;;;5057566;28;20468;-56
2022/09/20 01:41:33;;;;;;;7.68;3.75;;;11.30;99.90;;;;;;5034323;28;20052;-55
2022/09/20 01:44:09;;;;;;;7.80;3.60;;;11.40;99.90;;;;;;5057276;28;20029;-55
2022/09/20 01:46:36;;;;;;;9.60;3.80;;;11.40;99.90;;;;;;5056549;28;20032;-56
2022/09/20 01:49:39;;;;;;;11.82;3.80;;;11.40;99.90;;;;;;5057420;28;20025;-55
2022/09/20 01:52:32;;;;;;;7.85;3.28;;;11.40;99.90;;;;;;5057612;28;20101;-55
2022/09/20 01:55:10;;;;;;;10.75;4.03;;;11.40;99.90;;;;;;5057493;28;20035;-55
2022/09/20 01:58:05;;;;;;;8.27;2.80;;;11.50;99.90;;;;;;5057470;28;20545;-55
2022/09/20 02:00:44;;;;;;;8.50;3.03;;;11.40;99.90;;;;;;5057204;28;20017;-56
2022/09/20 02:03:45;;;;;;;11.60;3.28;;;11.50;99.90;;;;;;5057219;28;20071;-55
2022/09/20 02:06:17;;;;;;;9.05;3.28;;;11.50;99.90;;;;;;5057553;28;20025;-55
2022/09/20 02:08:58;;;;;;;8.63;2.95;;;11.60;99.90;;;;;;5057490;28;20025;-55
2022/09/20 02:11:45;;;;;;;8.20;3.30;;;11.60;99.90;;;;;;5057023;28;20092;-55
2022/09/20 02:14:29;;;;;;;10.52;3.65;;;11.70;99.90;;;;;;5057024;28;20064;-56
2022/09/20 02:17:15;;;;;;;8.90;2.92;;;11.80;99.90;;;;;;5057084;28;20041;-55
2022/09/20 02:20:07;;;;;;;9.52;3.40;;;11.80;99.90;;;;;;5056575;28;20112;-55
2022/09/20 02:22:51;;;;;;;11.30;3.40;;;11.90;99.90;;;;;;5056888;28;20318;-55
2022/09/20 02:25:37;;;;;;;12.13;3.78;;;12.00;99.90;;;;;;5057077;28;20017;-56
2022/09/20 02:28:35;;;;;;;11.07;3.78;;;12.10;99.90;;;;;;5056953;28;20166;-56
2022/09/20 02:31:56;;;;;;;9.40;3.47;;;12.10;99.90;;;;;;5033495;28;20175;-56
2022/09/20 02:34:27;;;;;;;11.27;3.30;;;12.10;99.90;;;;;;5033852;28;20485;-56
2022/09/20 02:37:24;;;;;;;9.63;3.60;;;12.10;99.90;;;;;;5056148;28;20044;-56
2022/09/20 02:39:59;;;;;;;15.45;4.32;;;12.20;99.90;;;;;;5055953;28;20528;-56
2022/09/20 02:42:35;;;;;;;13.32;3.45;;;12.30;99.90;;;;;;5055930;28;20086;-56
2022/09/20 02:45:10;;;;;;;7.20;3.25;;;12.30;99.90;;;;;;5055644;28;20075;-56
2022/09/20 02:47:41;;;;;;;8.38;3.33;;;12.20;99.90;;;;;;5056097;28;20033;-56
2022/09/20 02:50:44;;;;;;;5.65;3.05;;;12.00;99.90;;;;;;5056764;28;20105;-56
2022/09/20 02:53:36;;;;;;;11.15;3.72;;;11.80;99.90;;;;;;5055676;28;20029;-56
2022/09/20 02:56:08;;;;;;;10.27;3.70;;;11.50;99.90;;;;;;5056649;28;20148;-56
2022/09/20 02:59:04;;;;;;;9.65;3.55;;;11.40;99.90;;;;;;5056070;28;20028;-56
2022/09/20 03:01:41;;;;;;;9.48;4.28;;;11.30;99.90;;;;;;5055565;28;20053;-56
2022/09/20 03:04:40;;;;;;;8.18;3.90;;;11.30;99.90;;;;;;5057460;28;20105;-56
2022/09/20 03:07:25;;;;;;;15.90;4.25;;;11.20;99.90;;;;;;5056047;28;20033;-56
2022/09/20 03:10:14;;;;;;;11.70;4.25;;;11.20;99.90;;;;;;5035381;28;20048;-56
2022/09/20 03:13:04;;;;;;;9.30;4.53;;;11.10;99.90;;;;;;5055632;28;20033;-56
2022/09/20 03:15:44;;;;;;;10.60;3.70;;;11.00;99.90;;;;;;5054363;28;20025;-55
2022/09/20 03:18:35;;;;;;;11.48;4.30;;;10.70;99.90;;;;;;5054986;28;20123;-55
2022/09/20 03:21:22;;;;;;;13.27;4.05;;;10.70;99.90;;;;;;5054861;28;20029;-55
2022/09/20 03:24:27;;;;;;;13.70;4.55;;;10.80;99.90;;;;;;5070935;28;20490;-55
2022/09/20 03:27:06;;;;;;;11.68;4.15;;;10.70;99.90;;;;;;5039881;28;20049;-55
2022/09/20 03:30:15;;;;;;;12.60;4.65;;;10.90;99.90;;;;;;5055743;28;20032;-55
2022/09/20 03:32:40;;;;;;;9.10;4.60;;;10.90;99.90;;;;;;5032511;28;20041;-56
2022/09/20 03:35:14;;;;;;;9.55;5.10;;;10.90;99.90;;;;;;5054711;28;20535;-55
2022/09/20 03:37:48;;;;;;;11.73;4.90;;;10.90;99.90;;;;;;5054662;28;20090;-56
2022/09/20 03:40:23;;;;;;;15.95;5.07;;;10.70;99.90;;;;;;5056629;28;20104;-55
2022/09/20 03:42:51;;;;;;;13.25;4.53;;;10.80;99.90;;;;;;5055545;28;20036;-55
2022/09/20 03:45:34;;;;;;;11.25;4.80;;;10.70;99.90;;;;;;5054659;28;20013;-55
2022/09/20 03:47:59;;;;;;;11.48;5.22;;;10.80;99.90;;;;;;5054677;28;20036;-55
2022/09/20 03:50:52;;;;;;;10.30;4.68;;;10.80;99.90;;;;;;5054566;28;20029;-55
2022/09/20 03:53:39;;;;;;;8.70;4.50;;;10.90;99.90;;;;;;5054507;28;20055;-55
2022/09/20 03:56:25;;;;;;;10.75;4.68;;;10.90;99.90;;;;;;5054748;28;20021;-55
2022/09/20 03:59:06;;;;;;;10.23;4.78;;;10.90;99.90;;;;;;5055310;28;20475;-55
2022/09/20 04:01:31;;;;;;;11.88;4.78;;;10.90;99.90;;;;;;5055026;28;20045;-55
2022/09/20 04:04:10;;;;;;;12.50;4.47;;;10.70;99.90;;;;;;5054392;28;20028;-55
2022/09/20 04:06:59;;;;;;;13.07;4.22;;;10.50;99.90;;;;;;5054609;28;20099;-56
2022/09/20 04:10:07;;;;;;;12.25;5.22;;;10.50;99.90;;;;;;5070907;28;20500;-55
2022/09/20 04:12:38;;;;;;;10.73;5.13;;;10.50;99.90;;;;;;5054744;28;20033;-55
2022/09/20 04:15:36;;;;;;;10.10;4.95;;;10.40;99.90;;;;;;5054457;28;20052;-56
2022/09/20 04:18:26;;;;;;;12.18;5.50;;;10.30;99.90;;;;;;5054315;28;20044;-56
2022/09/20 04:21:04;;;;;;;15.50;5.53;;;10.30;99.90;;;;;;5054431;28;20021;-54
2022/09/20 04:24:02;;;;;;;14.07;5.82;;;10.30;99.90;;;;;;5054095;28;20112;-55
2022/09/20 04:26:31;;;;;;;9.40;5.15;;;10.40;99.90;;;;;;5053959;28;20029;-56
2022/09/20 04:29:13;;;;;;;13.30;5.55;;;10.40;99.90;;;;;;5053984;28;20047;-55
2022/09/20 04:31:46;;;;;;;11.03;5.80;;;10.40;99.90;;;;;;5053737;28;20106;-54
2022/09/20 04:36:27;;;;;;;13.48;6.10;;;10.40;99.90;;;;;;5054285;28;20028;-55
2022/09/20 04:37:31;;;;;;;14.68;6.32;;;10.40;99.90;;;;;;5053657;28;20458;-55
2022/09/20 04:40:13;;;;;;;21.45;6.85;;;10.40;99.90;;;;;;5054454;28;20427;-56
2022/09/20 04:43:03;;;;;;;12.13;6.23;;;10.40;99.90;;;;;;5053681;28;20039;-55
2022/09/20 04:45:56;;;;;;;14.15;6.10;;;10.30;99.90;;;;;;5054187;28;20443;-55
2022/09/20 04:49:02;;;;;;;12.27;6.20;;;10.30;99.90;;;;;;5053964;28;20106;-55
2022/09/20 04:51:33;;;;;;;14.70;6.15;;;10.30;99.90;;;;;;5022122;28;20163;-55
2022/09/20 04:54:43;;;;;;;11.90;6.03;;;10.30;99.90;;;;;;5053097;28;20389;-55
2022/09/20 04:57:40;;;;;;;11.50;5.72;;;10.40;99.90;;;;;;5050420;28;20041;-55
2022/09/20 05:00:09;;;;;;;9.38;5.70;;;10.40;99.90;;;;;;5053144;28;20093;-55
2022/09/20 05:02:41;;;;;;;11.23;6.07;;;10.50;99.90;;;;;;5053212;28;20049;-55
2022/09/20 05:05:26;;;;;;;10.10;5.85;;;10.50;99.90;;;;;;5053122;28;20033;-55
2022/09/20 05:08:23;;;;;;;12.63;6.30;;;10.50;99.90;;;;;;5052531;28;20033;-55
2022/09/20 05:10:54;;;;;;;11.98;6.00;;;10.50;99.90;;;;;;5053256;28;20025;-55
2022/09/20 05:13:50;;;;;;;9.48;5.60;;;10.50;99.90;;;;;;5052825;28;20057;-55
2022/09/20 05:16:34;;;;;;;13.23;6.07;;;10.50;99.90;;;;;;5054536;28;20029;-56
2022/09/20 05:19:49;;;;;;;11.30;6.18;;;10.60;99.90;;;;;;5056248;28;20036;-55
2022/09/20 05:22:42;;;;;;;13.98;6.25;;;10.60;99.90;;;;;;5002792;28;20583;-55
2022/09/20 05:25:24;;;;;;;14.50;6.43;;;10.60;99.90;;;;;;5056641;28;20081;-55
2022/09/20 05:28:00;;;;;;;13.80;6.10;;;10.60;99.90;;;;;;5056312;28;20125;-56
2022/09/20 05:30:45;;;;;;;8.38;5.95;;;10.50;99.90;;;;;;5056783;28;20037;-56
2022/09/20 05:33:33;;;;;;;16.23;6.47;;;10.50;99.90;;;;;;5057141;28;20021;-55
2022/09/20 05:36:10;;;;;;;14.13;5.90;;;10.50;99.90;;;;;;5056654;28;20025;-55
2022/09/20 05:39:01;;;;;;;12.63;6.00;;;10.60;99.90;;;;;;5055822;28;20382;-55
2022/09/20 05:41:39;;;;;;;16.58;6.68;;;10.60;99.90;;;;;;5053725;28;20553;-55
2022/09/20 05:44:49;;;;;;;13.50;6.22;;;10.50;99.90;;;;;;5054843;28;20021;-55
2022/09/20 05:47:30;;;;;;;16.48;6.45;;;10.50;99.90;;;;;;5036167;28;20025;-55
2022/09/20 05:50:11;;;;;;;10.85;6.35;;;10.60;99.90;;;;;;5035694;28;20040;-55
2022/09/20 05:52:51;;;;;;;12.98;6.00;;;10.60;99.90;;;;;;5036418;28;20084;-55
2022/09/20 05:55:45;;;;;;;20.23;6.55;;;10.70;99.90;;;;;;5035594;28;20072;-55
2022/09/20 05:58:28;;;;;;;16.63;6.78;;;10.80;99.90;;;;;;5050003;28;20082;-55
2022/09/20 06:01:08;;;;;;;14.90;6.10;;;10.70;99.90;;;;;;5044567;28;20025;-55
2022/09/20 06:04:03;;;;;;;22.15;6.00;;;10.70;99.90;;;;;;5040526;28;20055;-55
2022/09/20 06:06:42;;;;;;;10.93;5.95;;;10.50;99.90;;;;;;5046442;28;20025;-55
2022/09/20 06:09:21;;;;;;;11.07;6.10;;;10.20;99.90;;;;;;5049958;28;20040;-54
2022/09/20 06:12:04;;;;;;;10.48;5.43;;;10.00;99.90;;;;;;5044789;28;20025;-53
2022/09/20 06:14:45;;;;;;;12.63;6.20;;;9.80;99.90;;;;;;5040134;28;20029;-53
2022/09/20 06:17:26;;;;;;;10.68;6.57;;;9.70;99.90;;;;;;5031010;28;20041;-53
2022/09/20 06:20:34;;;;;;;16.30;7.15;;;9.70;99.90;;;;;;5036839;28;20140;-53
2022/09/20 06:23:03;;;;;;;16.80;7.10;;;9.70;99.90;;;;;;5029803;28;20048;-53
2022/09/20 06:25:54;;;;;;;16.85;7.30;;;9.80;99.90;;;;;;5040555;28;20448;-56
2022/09/20 06:28:29;;;;;;;13.82;7.28;;;10.00;99.90;;;;;;5036989;28;20656;-56
2022/09/20 06:30:56;;;;;;;15.70;8.00;;;10.10;99.90;;;;;;5038666;28;20052;-55
2022/09/20 06:33:24;;;;;;;15.73;7.78;;;10.30;99.90;;;;;;5034702;28;20492;-55
2022/09/20 06:41:25;;;;;;;15.68;8.18;;;10.40;99.90;;;;;;5040427;28;20075;-55
2022/09/20 06:41:59;;;;;;;12.90;6.68;;;10.60;99.90;;;;;;5036945;28;20055;-56
2022/09/20 06:44:25;;;;;;;11.75;6.20;;;10.80;99.90;;;;;;5038741;28;21386;-56
2022/09/20 06:46:54;;;;;;;15.15;5.97;;;11.10;99.90;;;;;;5044032;28;20471;-54
2022/09/20 06:49:21;;;;;;;10.25;5.70;;;11.30;99.90;;;;;;5044463;28;20033;-54
2022/09/20 06:51:49;;;;;;;13.77;5.80;;;11.40;99.90;;;;;;5037916;28;20025;-54
2022/09/20 06:54:18;;;;;;;12.90;6.10;;;11.60;99.90;;;;;;5030942;28;20425;-54
2022/09/20 06:56:46;;;;;;;9.85;5.47;;;11.70;99.90;;;;;;5037532;28;20102;-54
2022/09/20 06:59:14;;;;;;;14.90;5.55;;;11.90;99.90;;;;;;5039535;28;20431;-54
2022/09/20 07:01:41;;;;;;;13.15;5.50;;;12.00;99.90;;;;;;5032342;28;20033;-54
2022/09/20 07:04:08;;;;;;;10.38;5.57;;;12.00;99.90;;;;;;5028968;28;20275;-54
2022/09/20 07:06:34;;;;;;;12.10;5.40;;;12.10;99.90;;;;;;5044716;28;20064;-54
2022/09/20 07:09:00;;;;;;;8.40;5.00;;;12.20;99.90;;;;;;5034909;28;20549;-54
2022/09/20 07:11:26;;;;;;;12.07;5.63;;;12.30;99.90;;;;;;5031109;28;20088;-54
2022/09/20 07:13:54;;;;;;;12.63;5.72;;;12.30;99.90;;;;;;5033499;28;20055;-54
2022/09/20 07:16:20;;;;;;;11.32;5.68;;;12.40;99.90;;;;;;5033070;28;20040;-54
2022/09/20 07:18:46;;;;;;;9.07;5.40;;;12.30;99.90;;;;;;5033852;28;20028;-54
2022/09/20 07:21:14;;;;;;;10.70;5.28;;;12.50;99.90;;;;;;5038071;28;20074;-54
2022/09/20 07:23:40;;;;;;;11.90;5.30;;;12.60;99.90;;;;;;5053922;28;20033;-54
2022/09/20 07:26:14;;;;;;;11.32;5.88;;;12.70;99.90;;;;;;5042071;28;20028;-54
2022/09/20 07:28:40;;;;;;;13.32;5.82;;;12.90;99.90;;;;;;5041069;28;20533;-54
2022/09/20 07:31:06;;;;;;;21.13;6.13;;;13.00;99.90;;;;;;5042956;28;20024;-54
2022/09/20 07:33:31;;;;;;;12.02;5.88;;;13.00;99.90;;;;;;5039797;28;21311;-55
2022/09/20 07:35:57;;;;;;;14.57;5.72;;;13.00;99.90;;;;;;5032863;28;20041;-54
2022/09/20 07:38:23;;;;;;;10.90;5.90;;;13.10;99.90;;;;;;5042215;28;20032;-54
2022/09/20 07:41:01;;;;;;;11.98;5.40;;;13.20;99.90;;;;;;5044347;28;20032;-55
2022/09/20 07:43:28;;;;;;;10.05;5.00;;;13.40;99.90;;;;;;5039747;28;20013;-55
2022/09/20 07:45:54;;;;;;;14.98;5.00;;;13.70;99.90;;;;;;5038928;28;20744;-55
2022/09/20 07:48:31;;;;;;;6.97;3.92;;;14.50;99.90;;;;;;5031433;28;20115;-55
2022/09/20 07:51:01;;;;;;;6.85;4.00;;;16.20;99.90;;;;;;5036907;28;20037;-55
2022/09/20 07:53:26;;;;;;;9.75;3.22;;;16.90;99.90;;;;;;5032620;28;20115;-57
2022/09/20 07:56:10;;;;;;;7.65;3.20;;;18.00;99.90;;;;;;5036326;28;20044;-57
2022/09/20 07:58:39;;;;;;;9.55;3.45;;;19.00;99.90;;;;;;5036192;28;20036;-57
2022/09/20 08:01:11;;;;;;;8.02;2.70;;;20.00;99.90;;;;;;5039608;28;20039;-58
2022/09/20 08:03:37;;;;;;;5.93;2.22;;;21.20;99.90;;;;;;5035318;28;20036;-58
2022/09/20 08:06:13;;;;;;;6.32;2.60;;;21.50;99.90;;;;;;5037038;28;20368;-58
2022/09/20 08:08:39;;;;;;;6.70;2.60;;;21.50;99.90;;;;;;5038187;28;20025;-59
2022/09/20 08:11:12;;;;;;;5.13;2.22;;;21.90;99.90;;;;;;5033882;28;20043;-58
2022/09/20 08:13:39;;;;;;;11.50;2.55;;;22.30;99.90;;;;;;5030585;28;21003;-58
2022/09/20 08:16:07;;;;;;;5.50;2.40;;;22.70;99.90;;;;;;5028998;28;20675;-58
2022/09/20 08:18:34;;;;;;;10.55;2.20;;;23.20;99.90;;;;;;5032338;28;20029;-58
2022/09/20 08:21:10;;;;;;;4.95;2.20;;;23.60;99.90;;;;;;5039295;28;20025;-59
2022/09/20 08:23:37;;;;;;;10.13;2.10;;;24.00;99.90;;;;;;5042699;28;20033;-58
2022/09/20 08:26:04;;;;;;;8.23;2.03;;;24.00;99.90;;;;;;5033125;28;20039;-58
2022/09/20 08:28:32;;;;;;;7.47;1.92;;;24.10;99.90;;;;;;5039076;28;20482;-58
2022/09/20 08:31:09;;;;;;;4.80;1.77;;;24.90;99.90;;;;;;5035605;28;20033;-58
2022/09/20 08:33:36;;;;;;;8.35;2.20;;;25.10;99.30;;;;;;5033369;28;20210;-58
2022/09/20 08:36:03;;;;;;;7.05;2.05;;;24.70;98.10;;;;;;5028212;28;20041;-58
2022/09/20 08:38:31;;;;;;;4.53;1.55;;;24.10;99.20;;;;;;5038100;28;20040;-58
2022/09/20 08:41:02;;;;;;;3.45;1.70;;;23.30;99.80;;;;;;5045955;28;20032;-58
2022/09/20 08:43:35;;;;;;;3.85;2.00;;;21.90;99.90;;;;;;5038262;28;20401;-57
2022/09/20 08:46:03;;;;;;;6.00;1.90;;;21.00;99.90;;;;;;5042283;28;20063;-57
2022/09/20 08:48:32;;;;;;;9.52;2.60;;;20.70;99.90;;;;;;5041593;28;20044;-57
2022/09/20 08:51:03;;;;;;;13.15;3.13;;;20.10;99.90;;;;;;5042833;28;20167;-57
2022/09/20 08:53:29;;;;;;;5.03;2.40;;;20.20;99.90;;;;;;5044722;28;20037;-57
2022/09/20 08:55:58;;;;;;;4.30;2.20;;;20.10;99.90;;;;;;5043268;28;20037;-57
2022/09/20 08:58:25;;;;;;;8.82;2.50;;;20.20;99.90;;;;;;5026206;28;20488;-57
2022/09/20 09:00:50;;;;;;;5.60;2.22;;;20.30;99.90;;;;;;5034091;28;20025;-57
2022/09/20 09:03:17;;;;;;;6.47;2.22;;;20.70;99.90;;;;;;5040769;28;20041;-57
2022/09/20 09:05:53;;;;;;;6.20;2.40;;;21.10;99.90;;;;;;5043288;28;20025;-57
2022/09/20 09:08:29;;;;;;;7.55;2.33;;;21.00;99.90;;;;;;5038244;28;20096;-57
2022/09/20 09:11:08;;;;;;;4.85;1.98;;;20.90;99.90;;;;;;5038249;28;20032;-57
2022/09/20 09:13:50;;;;;;;4.03;1.70;;;20.20;99.90;;;;;;5035075;28;20507;-57
2022/09/20 09:16:16;;;;;;;4.13;1.95;;;19.90;99.90;;;;;;5032765;28;20033;-57
2022/09/20 09:18:44;;;;;;;5.47;1.60;;;20.10;99.90;;;;;;5037135;28;20050;-57
2022/09/20 09:21:22;;;;;;;6.05;1.50;;;20.10;99.90;;;;;;5035224;28;20499;-57
2022/09/20 09:24:04;;;;;;;5.10;1.50;;;19.80;99.90;;;;;;5034572;28;20036;-57
2022/09/20 09:26:38;;;;;;;2.85;0.80;;;20.70;99.90;;;;;;5035111;28;20165;-58
2022/09/20 09:29:13;;;;;;;4.05;1.15;;;22.10;99.90;;;;;;5033695;28;20398;-58
2022/09/20 09:31:39;;;;;;;3.55;1.00;;;23.20;99.90;;;;;;5032958;28;20629;-58
2022/09/20 09:34:23;;;;;;;3.42;0.98;;;23.40;99.90;;;;;;5039825;28;20029;-58
2022/09/20 09:36:48;;;;;;;2.38;0.80;;;23.10;99.90;;;;;;5044008;28;20468;-58
2022/09/20 09:39:29;;;;;;;3.47;1.08;;;22.40;99.90;;;;;;5032323;28;20531;-58
2022/09/20 09:41:56;;;;;;;3.35;1.10;;;21.80;99.90;;;;;;5038249;28;20035;-57
2022/09/20 09:44:29;;;;;;;5.88;1.38;;;21.20;99.90;;;;;;5037699;28;20036;-58
2022/09/20 09:46:56;;;;;;;5.57;1.30;;;20.90;99.90;;;;;;5042719;28;20055;-58
2022/09/20 09:49:23;;;;;;;3.80;0.95;;;20.60;99.90;;;;;;5042430;28;20021;-58
2022/09/20 09:51:59;;;;;;;5.93;1.48;;;20.40;99.90;;;;;;5040671;28;20056;-58
2022/09/20 09:54:27;;;;;;;3.45;1.13;;;20.10;99.90;;;;;;5034174;28;20048;-58
2022/09/20 09:57:27;;;;;;;5.22;1.05;;;19.70;99.90;;;;;;5040953;28;20267;-55
2022/09/20 10:00:14;;;;;;;6.07;1.20;;;19.30;99.90;;;;;;5034956;28;20060;-56
2022/09/20 10:03:00;;;;;;;3.78;1.10;;;19.50;99.90;;;;;;5036176;28;21033;-55
2022/09/20 10:05:32;;;;;;;3.70;1.08;;;19.60;99.90;;;;;;5034266;28;20498;-55
2022/09/20 10:08:29;;;;;;;2.33;0.77;;;19.60;99.90;;;;;;5031285;28;20037;-55
2022/09/20 10:11:06;;;;;;;3.58;0.80;;;19.40;99.90;;;;;;5032465;28;20104;-55
2022/09/20 10:14:02;;;;;;;3.30;0.90;;;19.30;99.90;;;;;;5052014;28;20056;-55
2022/09/20 10:16:42;;;;;;;3.25;0.88;;;19.00;99.90;;;;;;5040848;28;20492;-55
2022/09/20 10:19:30;;;;;;;2.53;1.00;;;19.00;99.90;;;;;;5037087;28;20052;-56
2022/09/20 10:22:34;;;;;;;3.42;1.10;;;19.10;99.90;;;;;;5037111;28;20112;-55
2022/09/20 10:25:19;;;;;;;4.07;1.00;;;19.20;99.90;;;;;;5030513;28;20090;-55
2022/09/20 10:28:03;;;;;;;1.83;0.60;;;19.00;99.90;;;;;;5034905;28;20041;-55
2022/09/20 10:31:00;;;;;;;12.98;1.20;;;18.90;99.90;;;;;;5035171;28;20572;-55
2022/09/20 10:33:31;;;;;;;4.38;1.17;;;18.60;99.90;;;;;;5036416;28;20033;-55
2022/09/20 10:36:09;;;;;;;6.50;1.00;;;18.60;99.90;;;;;;5041025;28;20060;-55
2022/09/20 10:38:50;;;;;;;2.85;0.98;;;18.60;99.90;;;;;;5034279;28;20033;-55
2022/09/20 10:44:19;;;;;;;11.38;1.60;;;18.70;99.90;;;;;;5037318;28;20082;-55
2022/09/20 10:47:03;;;;;;;7.53;1.60;;;18.90;99.90;;;;;;5032536;28;20393;-55
2022/09/20 10:49:42;;;;;;;10.50;1.33;;;18.80;99.90;;;;;;5052007;28;20666;-57
2022/09/20 10:52:13;;;;;;;8.27;1.15;;;18.90;99.90;;;;;;5045520;28;20366;-57
2022/09/20 10:55:12;;;;;;;7.18;1.30;;;18.90;99.90;;;;;;5050198;28;20021;-57
2022/09/20 10:57:46;;;;;;;10.32;1.23;;;18.30;99.90;;;;;;5006004;28;20171;-54
2022/09/20 11:00:18;;;;;;;7.10;1.35;;;18.00;99.90;;;;;;5042518;28;20056;-54
2022/09/20 11:02:55;;;;;;;9.77;1.98;;;18.00;99.90;;;;;;5044923;28;20059;-55
2022/09/20 11:05:23;;;;;;;4.85;1.02;;;17.90;99.90;;;;;;5031779;28;20261;-55
2022/09/20 11:08:11;;;;;;;6.55;1.27;;;18.00;99.90;;;;;;5032723;28;20025;-55
2022/09/20 11:10:49;;;;;;;5.65;1.00;;;17.90;99.90;;;;;;5043492;28;20163;-55
2022/09/20 11:13:53;;;;;;;3.63;1.30;;;17.70;99.90;;;;;;5044889;28;20103;-55
2022/09/20 11:16:22;;;;;;;5.95;1.35;;;17.80;99.90;;;;;;5039294;28;20025;-55
2022/09/20 11:18:57;;;;;;;3.80;1.02;;;17.80;99.90;;;;;;5042210;28;20402;-55
2022/09/20 11:21:46;;;;;;;5.82;1.15;;;17.80;99.90;;;;;;5037429;28;20623;-55
2022/09/20 11:24:27;;;;;;;4.40;1.10;;;18.10;99.90;;;;;;5042846;28;20462;-55
2022/09/20 11:26:58;;;;;;;3.30;1.00;;;18.30;99.90;;;;;;5055712;28;20560;-55
2022/09/20 11:29:34;;;;;;;2.53;0.93;;;18.50;99.90;;;;;;5033137;28;20087;-55
2022/09/20 11:32:27;;;;;;;3.05;0.80;;;18.70;99.90;;;;;;5046790;28;20036;-57
2022/09/20 11:34:58;;;;;;;6.00;1.13;;;18.90;99.90;;;;;;5041007;28;20501;-56
2022/09/20 11:37:32;;;;;;;7.15;0.82;;;18.90;99.90;;;;;;5040737;28;20052;-56
2022/09/20 11:40:08;;;;;;;6.28;1.25;;;19.40;99.90;;;;;;5048321;28;20021;-56
2022/09/20 11:42:38;;;;;;;2.75;1.30;;;20.20;99.90;;;;;;5040083;28;20029;-57
2022/09/20 11:45:04;;;;;;;6.18;1.50;;;20.50;99.90;;;;;;5041711;28;20014;-57
2022/09/20 11:47:37;;;;;;;2.63;0.90;;;21.00;99.90;;;;;;5048028;28;20472;-57
2022/09/20 11:50:37;;;;;;;4.35;0.90;;;22.20;99.90;;;;;;5042501;28;20031;-57
2022/09/20 11:53:47;;;;;;;3.38;0.70;;;23.80;99.90;;;;;;5044449;28;20086;-57
2022/09/20 11:56:24;;;;;;;4.90;0.90;;;24.00;99.40;;;;;;4988617;28;20865;-62
2022/09/20 11:58:51;;;;;;;5.82;0.85;;;25.80;95.70;;;;;;5030949;28;20044;-57
2022/09/20 12:01:25;;;;;;;3.17;0.80;;;25.80;92.70;;;;;;5036594;28;20053;-57
2022/09/20 12:03:53;;;;;;;5.40;0.80;;;25.80;92.10;;;;;;5044592;28;20028;-58
2022/09/20 12:06:32;;;;;;;3.53;0.63;;;25.20;93.30;;;;;;5042870;28;20029;-58
2022/09/20 12:09:01;;;;;;;11.13;0.95;;;24.90;93.10;;;;;;5046650;28;20036;-58
2022/09/20 12:11:34;;;;;;;4.57;1.13;;;24.20;95.10;;;;;;5041056;28;20025;-57
2022/09/20 12:14:31;;;;;;;2.90;1.00;;;23.30;96.30;;;;;;5039578;28;20087;-58
2022/09/20 12:16:57;;;;;;;4.30;0.70;;;22.90;97.60;;;;;;5036032;28;20045;-57
2022/09/20 12:19:32;;;;;;;3.17;0.90;;;22.30;99.40;;;;;;5049815;28;20116;-57
2022/09/20 12:21:57;;;;;;;3.00;0.77;;;21.80;99.90;;;;;;5043921;28;20029;-58
2022/09/20 12:24:32;;;;;;;5.55;1.30;;;21.40;99.90;;;;;;5051905;28;20470;-57
2022/09/20 12:27:00;;;;;;;4.75;1.27;;;20.90;99.90;;;;;;5048055;28;20282;-57
2022/09/20 12:29:26;;;;;;;3.55;1.13;;;20.60;99.90;;;;;;5045627;28;20021;-57
2022/09/20 12:31:58;;;;;;;3.70;1.45;;;20.40;99.90;;;;;;5045925;28;20208;-57
2022/09/20 12:34:24;;;;;;;6.97;1.38;;;19.80;99.90;;;;;;5044924;28;20058;-57
2022/09/20 12:36:53;;;;;;;2.97;1.35;;;19.20;99.90;;;;;;5049000;28;20036;-58
2022/09/20 12:39:36;;;;;;;4.38;1.40;;;18.80;99.90;;;;;;5046921;28;20021;-58
2022/09/20 12:42:10;;;;;;;8.18;1.75;;;18.50;99.90;;;;;;5046477;28;20092;-56
2022/09/20 12:44:48;;;;;;;4.38;1.63;;;18.10;99.90;;;;;;5044357;28;20036;-58
2022/09/20 12:47:22;;;;;;;6.32;1.67;;;17.90;99.90;;;;;;5045391;28;20310;-58
2022/09/20 12:55:26;;;;;;;12.30;2.47;;;17.60;99.90;;;;;;5044449;28;20029;-57
2022/09/20 12:57:57;;;;;;;7.05;2.30;;;17.60;99.90;;;;;;5043749;28;20029;-57
2022/09/20 13:00:35;;;;;;;3.75;1.88;;;17.40;99.90;;;;;;5042131;28;20443;-57
2022/09/20 13:03:28;;;;;;;4.22;2.08;;;17.30;99.90;;;;;;5040563;28;20065;-57
2022/09/20 13:06:06;;;;;;;10.40;1.73;;;17.20;99.90;;;;;;5046937;28;20032;-58
2022/09/20 13:08:31;;;;;;;8.65;1.83;;;17.00;99.90;;;;;;5043311;28;20513;-58
2022/09/20 13:11:12;;;;;;;7.72;2.00;;;17.00;99.90;;;;;;5039951;28;20103;-58
2022/09/20 13:14:01;;;;;;;5.28;1.63;;;17.00;99.90;;;;;;5041040;28;20025;-57
2022/09/20 13:16:37;;;;;;;9.23;1.67;;;17.10;99.90;;;;;;5033980;28;20425;-57
2022/09/20 13:19:12;;;;;;;5.15;1.58;;;17.10;99.90;;;;;;5037114;28;20035;-58
2022/09/20 13:21:40;;;;;;;9.07;2.03;;;17.10;99.90;;;;;;5046518;28;20037;-58
2022/09/20 13:24:11;;;;;;;8.85;1.50;;;17.00;99.90;;;;;;5042966;28;20029;-58
2022/09/20 13:26:44;;;;;;;3.42;1.50;;;16.80;99.90;;;;;;5049608;28;20410;-58
2022/09/20 13:29:26;;;;;;;6.05;1.98;;;16.70;99.90;;;;;;5053069;28;20029;-58
2022/09/20 13:31:51;;;;;;;5.65;1.67;;;16.60;99.90;;;;;;5049686;28;20041;-56
2022/09/20 13:34:23;;;;;;;6.15;1.70;;;16.60;99.90;;;;;;5046936;28;20397;-55
2022/09/20 13:36:53;;;;;;;6.40;1.90;;;16.50;99.90;;;;;;5045914;28;20029;-55
2022/09/20 13:39:25;;;;;;;9.60;2.65;;;16.50;99.90;;;;;;5046787;28;20017;-55
2022/09/20 13:41:51;;;;;;;;;;;16.40;99.90;;;;;;5046779;28;20032;-55
2022/09/20 13:44:18;;;;;;;5.18;1.70;;;16.40;99.90;;;;;;5048091;28;19959;-55
2022/09/20 13:46:44;;;;;;;3.63;1.73;;;16.40;99.90;;;;;;5048346;28;20036;-55
2022/09/20 13:49:22;;;;;;;9.20;1.50;;;16.50;99.90;;;;;;5055207;28;20021;-55
2022/09/20 13:51:49;;;;;;;8.63;1.98;;;16.50;99.90;;;;;;5038862;28;20060;-55